AirNav   Everest Fuels
 
 1639 users online  

M60 Woodruff County Airport
Augusta, Arkansas, USA

GOING TO AUGUSTA?


FAA INFORMATION EFFECTIVE 26 JANUARY 2023

Location

FAA Identifier: M60
Lat/Long: 35-16-18.8600N 091-16-13.1900W
35-16.314333N 091-16.219833W
35.2719056,-91.2703306
(estimated)
Elevation: 200 ft. / 61.0 m (surveyed)
Variation: 01W (2020)
From city: 4 miles E of AUGUSTA, AR
Time zone: UTC -6 (UTC -5 during Daylight Saving Time)
Zip code: 72006

Airport Operations

Airport use: Open to the public
Activation date: 11/1979
Control tower: no
ARTCC: MEMPHIS CENTER
FSS: JONESBORO FLIGHT SERVICE STATION
NOTAMs facility: JBR (NOTAM-D service available)
Attendance: UNATNDD
Wind indicator: lighted
Segmented circle: yes
Lights: ACTVT MIRL RY 09/27 - CTAF.
Beacon: white-green (lighted land airport)
Operates sunset to sunrise.

Airport Communications

CTAF: 122.9
  • APCH/DEP SVC PRVDD BY MEMPHIS ARTCC (ZME) ON 135.3/335.8 (BRINKLEY RCAG).

Nearby radio navigation aids

VOR radial/distance  VOR name  Freq  Var
GQEr259/39.0GILMORE VOR/DME113.0004E

Airport Services

Parking: tiedowns
Airframe service: NONE
Powerplant service: NONE

Runway Information

Runway 9/27

Dimensions: 3797 x 75 ft. / 1157 x 23 m
Surface: asphalt, in good condition
Runway edge lights: medium intensity
RUNWAY 9  RUNWAY 27
Latitude: 35-16.318367N35-16.310167N
Longitude: 091-16.601333W091-15.838333W
Elevation: 197.8 ft.198.1 ft.
Traffic pattern: leftleft
Markings: nonprecision, in good conditionnonprecision, in good condition
Visual slope indicator: 2-light PAPI on left (3.00 degrees glide path)2-light PAPI on left (3.04 degrees glide path)
Touchdown point: yes, no lightsyes, no lights
Obstructions: 4 ft. road, 300 ft. from runway, 25:1 slope to clear30 ft. trees, 850 ft. from runway, 75 ft. right of centerline, 21:1 slope to clear

Airport Ownership and Management from official FAA records

Ownership: Publicly-owned
Owner: WOODRUFF COUNTY
BOX 300
AUGUSTA, AR 72006
Phone 870-347-5206
Manager: CHARLES DALLAS - CO. JUDGE
P.O. BOX 300
AUGUSTA, AR 72006
Phone 870-731-5516

Airport Operational Statistics

Aircraft operations: avg 105/week *
91% local general aviation
9% transient general aviation
* for 12-month period ending 31 October 2020

Additional Remarks

DEER ON & INVOF ARPT.
FOR CD CTC MEMPHIS ARTCC AT 901-368-8453/8449.

Instrument Procedures

NOTE: All procedures below are presented as PDF files. If you need a reader for these files, you should download the free Adobe Reader.

NOT FOR NAVIGATION. Please procure official charts for flight.
FAA instrument procedures published for use from 26 January 2023 at 0901Z to 23 February 2023 at 0900z.

 
IAPs - Instrument Approach Procedures
RNAV (GPS)-A   download
NOTE: Special Take-Off Minimums/Departure Procedures apply   download (263KB)

Other nearby airports with instrument procedures:

M19 - Newport Regional Airport (22 nm N)
KSRC - Searcy Municipal Airport (23 nm W)
KDRP - Delta Regional Airport (24 nm SE)
M36 - Frank Federer Memorial Airport (24 nm S)
KBVX - Batesville Regional Airport (33 nm NW)
 
Loc | Ops | Rwys | IFR | FBO | Links
Com | Nav | Svcs | Stats | Notes
Area around M60 (Woodruff County Airport)
 
Road maps at: MapQuest Bing Google
 
Aerial photo
WARNING: Photo may not be current or correct
Aerial photo of M60 (Woodruff County Airport)
Photo courtesy of the Arkansas Department of Aeronautics
Taken in the Spring of 2007

Do you have a better or more recent aerial photo of Woodruff County Airport that you would like to share? If so, please send us your photo.

 
Sectional chart

 
Airport distance calculator
Flying to Woodruff County Airport? Find the distance to fly.

From to M60

Sunrise and sunset
Times for 08-Feb-2023
 Local
(UTC-6)
 Zulu
(UTC)
Morning civil twilight06:3312:33
Sunrise06:5912:59
Sunset17:3923:39
Evening civil twilight18:0600:06

Current date and time
Zulu (UTC)  08-Feb-2023 19:42:35
Local (UTC-6)  08-Feb-2023 13:42:35
 
METAR
KM19 
22nm N 
081910Z AUTO 06012KT 4SM RA BR FEW007 SCT021 OVC027 10/10 A3002 RMK AO2 P0003
KSRC 
23nm W 
081918Z AUTO 06010KT 10SM -RA SCT006 OVC016 11/11 A2996 RMK AO2 PRESFR P0002
KBVX 
32nm NW 
081905Z AUTO 08005KT 4SM -RA BR BKN003 BKN009 OVC045 09/09 A3001 RMK AO2 P0002
KSGT 
43nm S 
081856Z AUTO 04008KT 10SM OVC005 11/11 A3000 RMK AO2 RAE10 CIG 003V007 SLP158 P0000 T01110111
TAF
KJBR 
45nm NE 
081720Z 0818/0918 06015KT 2SM +RA BR BKN004 OVC020 FM082000 10013KT 4SM -SHRA VCTS OVC007CB FM090100 16013G24KT 2SM SHRA VCTS OVC015CB FM090500 22022G34KT P6SM OVC020 FM091700 26011G18KT P6SM BKN015
KLRF 
48nm SW 
081707Z 0817/0921 06009KT 6000 -SHRA BR OVC002 QNH3004INS BECMG 0820/0821 11010KT 8000 -SHRA OVC007 6512006 QNH2992INS TEMPO 0902/0905 19015G25KT 4800 -TSRA OVC007CB BECMG 0906/0907 23009KT 9999 NSW BKN030 QNH2980INS BECMG 0913/0914 26010G15KT 9999 BKN030 QNH3003INS BECMG 0917/0918 27009KT 9999 SCT050 QNH3007INS TX18/0901Z TN08/0913Z
NOTAMs
Click for the latest NOTAMs
NOTAMs are issued by the DoD/FAA and will open in a separate window not controlled by AirNav.

 

 
 

Would you like to see your business listed on this page?

 If your business provides an interesting product or service to pilots, flight crews, aircraft, or users of the Woodruff County Airport, you should consider listing it here.  To start the listing process, click on the button below
 
Add a business
 

Other Pages about Woodruff County Airport

Update a link
 
Copyright © AirNav, LLC. All rights reserved. Privacy Policy  Contact